Time;durP1;ratioP1;P1;durP2;ratioP2;P2;SDS_P1;SDS_P2;PMS_P1;PMS_P2;Temp;Humidity;BMP_temperature;BMP_pressure;BME280_temperature;BME280_humidity;BME280_pressure;Samples;Min_cycle;Max_cycle;Signal;HPM_P1;HPM_P2
2022/11/21 00:00:30;;;;;;;18.92;16.92;;;6.10;99.90;;;;;;2077789;28;20944;-72
2022/11/21 00:01:31;;;;;;;19.00;16.60;;;6.10;99.90;;;;;;2075924;28;20083;-72
2022/11/21 00:02:32;;;;;;;17.92;15.85;;;6.10;99.90;;;;;;2077178;28;20034;-72
2022/11/21 00:03:32;;;;;;;17.60;15.70;;;6.00;99.90;;;;;;2076978;28;20038;-72
2022/11/21 00:04:33;;;;;;;18.13;16.00;;;6.00;99.90;;;;;;2079257;28;20029;-72
2022/11/21 00:05:37;;;;;;;17.98;16.08;;;6.00;99.90;;;;;;2078200;28;20029;-72
2022/11/21 00:06:37;;;;;;;17.35;15.55;;;6.00;99.90;;;;;;2077577;28;20112;-72
2022/11/21 00:07:38;;;;;;;18.25;16.38;;;6.00;99.90;;;;;;2078114;28;20037;-72
2022/11/21 00:08:38;;;;;;;17.95;15.75;;;6.10;99.90;;;;;;2077811;28;20116;-72
2022/11/21 00:09:39;;;;;;;17.60;14.90;;;6.00;99.90;;;;;;2077936;28;20036;-72
2022/11/21 00:10:40;;;;;;;17.45;15.60;;;6.00;99.90;;;;;;2077872;28;20021;-72
2022/11/21 00:11:41;;;;;;;18.55;16.48;;;6.10;99.90;;;;;;2078940;28;20097;-72
2022/11/21 00:12:41;;;;;;;19.13;15.73;;;6.10;99.90;;;;;;2077867;28;20033;-72
2022/11/21 00:13:42;;;;;;;19.30;16.08;;;6.10;99.90;;;;;;2077193;28;20076;-72
2022/11/21 00:14:42;;;;;;;18.58;16.55;;;6.00;99.90;;;;;;2074264;28;20025;-72
2022/11/21 00:15:43;;;;;;;18.17;16.20;;;6.00;99.90;;;;;;2079202;28;20032;-72
2022/11/21 00:16:45;;;;;;;18.67;15.82;;;6.00;99.90;;;;;;2075843;28;20073;-73
2022/11/21 00:17:45;;;;;;;16.60;14.85;;;6.00;99.90;;;;;;2077794;28;20021;-72
2022/11/21 00:18:46;;;;;;;17.75;14.90;;;6.00;99.90;;;;;;2076950;28;20079;-72
2022/11/21 00:19:46;;;;;;;18.13;16.30;;;6.00;99.90;;;;;;2078611;28;20026;-72
2022/11/21 00:20:47;;;;;;;18.23;16.23;;;6.00;99.90;;;;;;2078423;28;20123;-72
2022/11/21 00:21:47;;;;;;;19.52;16.77;;;6.00;99.90;;;;;;2075646;28;20040;-72
2022/11/21 00:22:49;;;;;;;19.58;17.42;;;6.00;99.90;;;;;;2078115;28;20029;-72
2022/11/21 00:23:51;;;;;;;17.40;15.60;;;6.00;99.90;;;;;;2077896;28;20509;-72
2022/11/21 00:24:51;;;;;;;17.13;14.13;;;6.00;99.90;;;;;;2077096;28;20041;-72
2022/11/21 00:25:52;;;;;;;18.45;16.55;;;6.00;99.90;;;;;;2077952;28;20586;-72
2022/11/21 00:26:52;;;;;;;17.90;16.05;;;6.00;99.90;;;;;;2077892;28;20460;-72
2022/11/21 00:27:53;;;;;;;21.05;18.33;;;6.00;99.90;;;;;;2077298;28;20658;-72
2022/11/21 00:28:53;;;;;;;19.23;17.23;;;6.00;99.90;;;;;;2076063;28;20456;-72
2022/11/21 00:29:54;;;;;;;19.02;16.73;;;6.10;99.90;;;;;;2076345;28;20052;-72
2022/11/21 00:30:54;;;;;;;17.63;15.18;;;6.00;99.90;;;;;;2076658;28;20037;-72
2022/11/21 00:31:55;;;;;;;18.73;16.58;;;6.00;99.90;;;;;;2076397;28;20048;-72
2022/11/21 00:32:57;;;;;;;17.65;15.75;;;6.10;99.90;;;;;;2076156;28;20116;-72
2022/11/21 00:33:58;;;;;;;17.98;16.10;;;6.10;99.90;;;;;;2078245;28;20037;-72
2022/11/21 00:34:58;;;;;;;18.92;16.90;;;6.10;99.90;;;;;;2077581;28;20082;-72
2022/11/21 00:36:08;;;;;;;21.30;18.77;;;6.10;99.90;;;;;;2076450;28;20037;-72
2022/11/21 00:37:08;;;;;;;24.75;18.65;;;6.10;99.90;;;;;;2078652;28;20029;-72
2022/11/21 00:38:09;;;;;;;20.85;17.80;;;6.00;99.90;;;;;;2073981;28;20033;-72
2022/11/21 00:39:09;;;;;;;20.67;17.08;;;6.00;99.90;;;;;;2068160;28;20026;-72
2022/11/21 00:40:10;;;;;;;19.48;17.45;;;6.00;99.90;;;;;;2077899;28;20059;-72
2022/11/21 00:41:11;;;;;;;16.85;15.05;;;6.00;99.90;;;;;;2075384;28;20025;-72
2022/11/21 00:42:11;;;;;;;20.98;17.20;;;6.00;99.90;;;;;;2077092;28;20058;-72
2022/11/21 00:43:12;;;;;;;18.25;16.23;;;6.00;99.90;;;;;;2075984;28;20033;-72
2022/11/21 00:44:12;;;;;;;20.25;17.98;;;6.00;99.90;;;;;;2078311;28;20430;-72
2022/11/21 00:45:13;;;;;;;19.00;16.60;;;6.00;99.90;;;;;;2078602;28;20416;-72
2022/11/21 00:46:14;;;;;;;18.85;16.67;;;6.00;99.90;;;;;;2077760;28;20026;-72
2022/11/21 00:47:14;;;;;;;17.42;15.63;;;6.00;99.90;;;;;;2078092;28;20033;-72
2022/11/21 00:48:15;;;;;;;20.90;18.10;;;6.00;99.90;;;;;;2077252;28;20043;-72
2022/11/21 00:49:15;;;;;;;16.83;14.52;;;6.00;99.90;;;;;;2077424;28;20076;-72
2022/11/21 00:50:16;;;;;;;19.15;17.08;;;6.10;99.90;;;;;;2077136;28;20030;-72
2022/11/21 00:51:16;;;;;;;19.35;17.35;;;6.10;99.90;;;;;;2075184;28;20108;-72
2022/11/21 00:52:17;;;;;;;17.27;15.43;;;6.10;99.90;;;;;;2076644;28;20072;-72
2022/11/21 00:53:18;;;;;;;19.63;17.60;;;6.10;99.90;;;;;;2077599;28;20086;-72
2022/11/21 00:54:18;;;;;;;20.63;17.17;;;6.10;99.90;;;;;;2077170;28;20088;-72
2022/11/21 00:55:19;;;;;;;17.73;15.77;;;6.10;99.90;;;;;;2077698;28;20465;-73
2022/11/21 00:56:19;;;;;;;17.40;15.50;;;6.10;99.90;;;;;;2076832;28;20029;-72
2022/11/21 00:57:20;;;;;;;19.63;15.93;;;6.20;99.90;;;;;;2077822;28;21622;-72
2022/11/21 00:58:20;;;;;;;18.15;15.70;;;6.10;99.90;;;;;;2077888;28;20021;-72
2022/11/21 00:59:21;;;;;;;18.60;16.60;;;6.20;99.90;;;;;;2077454;28;20017;-72
2022/11/21 01:00:21;;;;;;;16.48;14.77;;;6.10;99.90;;;;;;2076518;28;20030;-72
2022/11/21 01:01:22;;;;;;;19.60;15.98;;;6.10;99.90;;;;;;2078548;28;20037;-72
2022/11/21 01:02:22;;;;;;;16.38;14.68;;;6.10;99.90;;;;;;2076495;28;20025;-72
2022/11/21 01:03:23;;;;;;;17.85;15.95;;;6.10;99.90;;;;;;2077587;28;20045;-72
2022/11/21 01:04:23;;;;;;;17.00;15.20;;;6.10;99.90;;;;;;2078745;28;20025;-72
2022/11/21 01:05:24;;;;;;;15.27;13.68;;;6.10;99.90;;;;;;2075798;28;20024;-72
2022/11/21 01:06:25;;;;;;;14.90;13.40;;;6.10;99.90;;;;;;2077701;28;20803;-72
2022/11/21 01:07:25;;;;;;;15.63;13.18;;;6.10;99.90;;;;;;2077639;28;20051;-72
2022/11/21 01:08:26;;;;;;;15.60;14.00;;;6.10;99.90;;;;;;2077084;28;20029;-72
2022/11/21 01:09:27;;;;;;;16.05;14.32;;;6.10;99.90;;;;;;2077440;28;20021;-72
2022/11/21 01:10:27;;;;;;;15.77;14.07;;;6.10;99.90;;;;;;2077449;28;20083;-72
2022/11/21 01:11:28;;;;;;;15.93;14.23;;;6.10;99.90;;;;;;2077669;28;20083;-72
2022/11/21 01:12:30;;;;;;;14.93;13.43;;;6.10;99.90;;;;;;2077755;28;20373;-72
2022/11/21 01:13:32;;;;;;;14.52;13.13;;;6.10;99.90;;;;;;2077072;28;20029;-72
2022/11/21 01:14:32;;;;;;;13.85;12.45;;;6.10;99.90;;;;;;2077404;28;20029;-72
2022/11/21 01:15:33;;;;;;;15.40;13.80;;;6.10;99.90;;;;;;2078386;28;20038;-72
2022/11/21 01:16:33;;;;;;;13.35;12.05;;;6.10;99.90;;;;;;2076482;28;20037;-72
2022/11/21 01:17:34;;;;;;;15.00;13.50;;;6.10;99.90;;;;;;2076447;28;20053;-72
2022/11/21 01:18:35;;;;;;;15.45;13.85;;;6.10;99.90;;;;;;2077930;28;20030;-72
2022/11/21 01:19:35;;;;;;;13.88;12.50;;;6.10;99.90;;;;;;2076105;28;20034;-72
2022/11/21 01:20:39;;;;;;;15.18;13.68;;;6.10;99.90;;;;;;2077183;28;20022;-72
2022/11/21 01:21:40;;;;;;;15.18;13.73;;;6.10;99.90;;;;;;2076921;28;20047;-72
2022/11/21 01:22:40;;;;;;;15.13;13.68;;;6.10;99.90;;;;;;2076108;28;20808;-72
2022/11/21 01:23:42;;;;;;;16.95;15.23;;;6.10;99.90;;;;;;2076211;28;20030;-72
2022/11/21 01:24:42;;;;;;;14.25;12.80;;;6.10;99.90;;;;;;2077718;28;20033;-72
2022/11/21 01:25:43;;;;;;;13.98;12.38;;;6.10;99.90;;;;;;2077984;28;20044;-72
2022/11/21 01:26:43;;;;;;;14.48;12.93;;;6.10;99.90;;;;;;2076311;28;20033;-72
2022/11/21 01:27:44;;;;;;;15.05;13.52;;;6.00;99.90;;;;;;2078355;28;20069;-72
2022/11/21 01:28:45;;;;;;;16.13;14.48;;;6.10;99.90;;;;;;2068403;28;20247;-72
2022/11/21 01:29:45;;;;;;;16.58;14.88;;;6.00;99.90;;;;;;2075005;28;20068;-72
2022/11/21 01:30:46;;;;;;;15.73;14.05;;;6.10;99.90;;;;;;2075797;28;20029;-72
2022/11/21 01:31:46;;;;;;;15.90;14.20;;;6.00;99.90;;;;;;2077207;28;20492;-72
2022/11/21 01:32:48;;;;;;;16.42;14.88;;;6.10;99.90;;;;;;2076473;28;20765;-72
2022/11/21 01:33:49;;;;;;;15.48;13.93;;;6.10;99.90;;;;;;2077207;28;20033;-72
2022/11/21 01:34:50;;;;;;;16.48;14.73;;;6.10;99.90;;;;;;2076192;28;20397;-72
2022/11/21 01:35:50;;;;;;;14.50;12.98;;;6.10;99.90;;;;;;2075276;28;20041;-72
2022/11/21 01:36:51;;;;;;;15.02;13.50;;;6.10;99.90;;;;;;2078241;28;20037;-72
2022/11/21 01:37:51;;;;;;;14.93;13.30;;;6.10;99.90;;;;;;2076629;28;20091;-72
2022/11/21 01:38:54;;;;;;;15.07;13.57;;;6.10;99.90;;;;;;2077678;28;20114;-72
2022/11/21 01:39:54;;;;;;;15.85;14.25;;;6.10;99.90;;;;;;2077444;28;20104;-72
2022/11/21 01:40:55;;;;;;;16.15;14.55;;;6.10;99.90;;;;;;2078215;28;20037;-72
2022/11/21 01:41:55;;;;;;;16.92;15.13;;;6.10;99.90;;;;;;2075228;28;20037;-72
2022/11/21 01:43:10;;;;;;;16.02;14.43;;;6.00;99.90;;;;;;2075392;28;20034;-72
2022/11/21 01:44:19;;;;;;;17.17;15.48;;;6.00;99.90;;;;;;2078033;28;20036;-72
2022/11/21 01:45:58;;;;;;;15.55;14.05;;;6.00;99.90;;;;;;2075475;28;20028;-72
2022/11/21 01:46:58;;;;;;;15.82;14.23;;;6.00;99.90;;;;;;2073784;28;20025;-72
2022/11/21 01:47:59;;;;;;;16.15;14.50;;;6.00;99.90;;;;;;2076673;28;20219;-72
2022/11/21 01:48:59;;;;;;;15.77;14.18;;;6.00;99.90;;;;;;2077386;28;20040;-72
2022/11/21 01:50:00;;;;;;;17.77;15.63;;;6.00;99.90;;;;;;2075393;28;20057;-72
2022/11/21 01:51:13;;;;;;;14.30;12.80;;;6.00;99.90;;;;;;2076098;28;20057;-72
2022/11/21 01:52:24;;;;;;;15.55;13.98;;;6.00;99.90;;;;;;2074183;28;20382;-73
2022/11/21 01:53:24;;;;;;;15.95;14.35;;;6.00;99.90;;;;;;2077038;28;20029;-72
2022/11/21 01:54:35;;;;;;;16.05;14.35;;;5.90;99.90;;;;;;2078035;28;20090;-72
2022/11/21 01:55:36;;;;;;;15.35;13.77;;;5.90;99.90;;;;;;2075181;28;20029;-72
2022/11/21 01:56:42;;;;;;;15.88;14.27;;;5.90;99.90;;;;;;2075816;28;20176;-72
2022/11/21 01:57:47;;;;;;;16.20;14.25;;;5.90;99.90;;;;;;2078599;28;20052;-72
2022/11/21 01:58:52;;;;;;;16.13;14.52;;;5.90;99.90;;;;;;2071716;28;20117;-72
2022/11/21 02:00:05;;;;;;;16.35;14.45;;;5.80;99.90;;;;;;2076186;28;20033;-72
2022/11/21 02:01:06;;;;;;;14.05;12.65;;;5.80;99.90;;;;;;2076764;28;20021;-72
2022/11/21 02:02:09;;;;;;;17.98;15.32;;;5.80;99.90;;;;;;2075939;28;20037;-72
2022/11/21 02:03:14;;;;;;;16.13;14.52;;;5.80;99.90;;;;;;2075829;28;20501;-72
2022/11/21 02:04:14;;;;;;;15.63;13.98;;;5.80;99.90;;;;;;2076420;28;20037;-72
2022/11/21 02:05:25;;;;;;;16.13;14.52;;;5.80;99.90;;;;;;2077912;28;20683;-72
2022/11/21 02:06:26;;;;;;;16.55;14.52;;;5.80;99.90;;;;;;2076998;28;20034;-72
2022/11/21 02:07:31;;;;;;;15.85;14.25;;;5.70;99.90;;;;;;2076957;28;20112;-72
2022/11/21 02:08:32;;;;;;;16.33;14.70;;;5.80;99.90;;;;;;2076817;28;20116;-72
2022/11/21 02:09:36;;;;;;;16.33;14.73;;;5.80;99.90;;;;;;2076399;28;20034;-72
2022/11/21 02:10:38;;;;;;;16.52;14.88;;;5.80;99.90;;;;;;2075922;28;20030;-72
2022/11/21 02:11:43;;;;;;;14.85;13.32;;;5.70;99.90;;;;;;2076849;28;20014;-72
2022/11/21 02:12:48;;;;;;;15.85;14.35;;;5.80;99.90;;;;;;2074589;28;20112;-72
2022/11/21 02:13:48;;;;;;;14.70;13.20;;;5.80;99.90;;;;;;2076154;28;20134;-72
2022/11/21 02:14:51;;;;;;;15.68;14.07;;;5.80;99.90;;;;;;2077322;28;20071;-72
2022/11/21 02:15:52;;;;;;;16.27;14.65;;;5.80;99.90;;;;;;2075071;28;20042;-73
2022/11/21 02:16:55;;;;;;;16.65;15.05;;;5.80;99.90;;;;;;2076121;28;20025;-72
2022/11/21 02:17:56;;;;;;;17.52;15.73;;;5.80;99.90;;;;;;2075899;28;20558;-72
2022/11/21 02:18:56;;;;;;;17.05;15.35;;;5.80;99.90;;;;;;2075904;28;20919;-72
2022/11/21 02:19:59;;;;;;;16.13;14.52;;;5.80;99.90;;;;;;2074623;28;20040;-72
2022/11/21 02:21:26;;;;;;;16.52;14.90;;;5.80;99.90;;;;;;2075977;28;20028;-72
2022/11/21 02:22:32;;;;;;;16.17;14.50;;;5.90;99.90;;;;;;2070317;28;20034;-72
2022/11/21 02:23:43;;;;;;;16.30;14.60;;;5.80;99.90;;;;;;2077182;28;20545;-73
2022/11/21 02:24:45;;;;;;;16.27;14.57;;;5.80;99.90;;;;;;2077894;28;20020;-72
2022/11/21 02:25:46;;;;;;;15.68;14.15;;;5.80;99.90;;;;;;2076438;28;20034;-72
2022/11/21 02:26:47;;;;;;;15.00;13.40;;;5.80;99.90;;;;;;2075272;28;20041;-72
2022/11/21 02:27:49;;;;;;;15.70;14.13;;;5.80;99.90;;;;;;2075699;28;20471;-72
2022/11/21 02:28:50;;;;;;;15.98;13.93;;;5.90;99.90;;;;;;2075858;28;20382;-72
2022/11/21 02:29:51;;;;;;;16.45;14.85;;;5.90;99.90;;;;;;2075528;28;20029;-72
2022/11/21 02:30:51;;;;;;;18.73;16.75;;;5.80;99.90;;;;;;2076898;28;20650;-72
2022/11/21 02:31:52;;;;;;;19.60;17.52;;;5.80;99.90;;;;;;2075128;28;20936;-72
2022/11/21 02:32:53;;;;;;;18.05;16.23;;;5.80;99.90;;;;;;2076020;28;20072;-72
2022/11/21 02:33:54;;;;;;;18.77;16.85;;;5.80;99.90;;;;;;2075356;28;20393;-72
2022/11/21 02:34:54;;;;;;;18.80;16.88;;;5.90;99.90;;;;;;2074677;28;20029;-72
2022/11/21 02:36:00;;;;;;;18.30;16.48;;;5.80;99.90;;;;;;2077619;28;20035;-72
2022/11/21 02:37:01;;;;;;;18.10;16.27;;;5.80;99.90;;;;;;2076876;28;20026;-72
2022/11/21 02:38:06;;;;;;;17.70;15.90;;;5.80;99.90;;;;;;2076069;28;20037;-72
2022/11/21 02:39:17;;;;;;;19.13;17.05;;;5.80;99.90;;;;;;2076471;28;20021;-72
2022/11/21 02:40:24;;;;;;;17.83;16.02;;;5.80;99.90;;;;;;2074872;28;20376;-72
2022/11/21 02:41:28;;;;;;;17.13;15.43;;;5.80;99.90;;;;;;2077098;28;20026;-72
2022/11/21 02:42:40;;;;;;;18.30;16.40;;;5.70;99.90;;;;;;2083975;28;20044;-72
2022/11/21 02:43:51;;;;;;;18.05;16.25;;;5.70;99.90;;;;;;2081904;28;20115;-72
2022/11/21 02:45:12;;;;;;;18.05;16.25;;;5.70;99.90;;;;;;2075584;28;20024;-72
2022/11/21 02:46:13;;;;;;;17.38;15.63;;;5.70;99.90;;;;;;2075264;28;20030;-72
2022/11/21 02:47:13;;;;;;;16.75;15.00;;;5.70;99.90;;;;;;2076125;28;20153;-72
2022/11/21 02:48:14;;;;;;;18.02;16.13;;;5.70;99.90;;;;;;2075628;28;20473;-72
2022/11/21 02:49:22;;;;;;;18.95;16.95;;;5.70;99.90;;;;;;2076111;28;20931;-72
2022/11/21 02:50:30;;;;;;;16.17;14.48;;;5.70;99.90;;;;;;2073181;28;20436;-72
2022/11/21 02:51:31;;;;;;;17.17;15.48;;;5.70;99.90;;;;;;2072807;28;20477;-72
2022/11/21 02:52:31;;;;;;;18.73;16.63;;;5.70;99.90;;;;;;2076645;28;20026;-72
2022/11/21 02:53:32;;;;;;;18.75;16.85;;;5.70;99.90;;;;;;2075556;28;20041;-72
2022/11/21 02:54:32;;;;;;;19.10;17.10;;;5.70;99.90;;;;;;2076565;28;20923;-72
2022/11/21 02:55:33;;;;;;;20.00;17.83;;;5.70;99.90;;;;;;2075769;28;20030;-72
2022/11/21 02:56:33;;;;;;;17.75;15.93;;;5.70;99.90;;;;;;2075749;28;20091;-72
2022/11/21 02:57:34;;;;;;;19.73;17.73;;;5.70;99.90;;;;;;2076544;28;20032;-72
2022/11/21 02:58:34;;;;;;;20.48;18.33;;;5.70;99.90;;;;;;2075714;28;20038;-72
2022/11/21 02:59:35;;;;;;;20.92;18.65;;;5.70;99.90;;;;;;2074431;28;20029;-72
2022/11/21 03:00:39;;;;;;;22.42;20.02;;;5.70;99.90;;;;;;2075936;28;20056;-72
2022/11/21 03:01:40;;;;;;;20.13;18.00;;;5.70;99.90;;;;;;2075120;28;20116;-72
2022/11/21 03:02:40;;;;;;;20.17;18.08;;;5.70;99.90;;;;;;2077199;28;20059;-72
2022/11/21 03:03:41;;;;;;;20.77;18.13;;;5.70;99.90;;;;;;2075487;28;20044;-72
2022/11/21 03:04:41;;;;;;;20.55;18.38;;;5.70;99.90;;;;;;2077398;28;20026;-72
2022/11/21 03:05:42;;;;;;;21.55;18.40;;;5.70;99.90;;;;;;2077313;28;20022;-72
2022/11/21 03:06:43;;;;;;;20.65;18.42;;;5.70;99.90;;;;;;2075743;28;20025;-72
2022/11/21 03:07:44;;;;;;;22.55;19.58;;;5.70;99.90;;;;;;2077298;28;20021;-72
2022/11/21 03:08:45;;;;;;;20.05;18.05;;;5.70;99.90;;;;;;2077146;28;20121;-72
2022/11/21 03:09:45;;;;;;;18.50;16.65;;;5.60;99.90;;;;;;2075718;28;20092;-72
2022/11/21 03:10:46;;;;;;;20.70;18.25;;;5.60;99.90;;;;;;2076798;28;20807;-72
2022/11/21 03:11:46;;;;;;;22.00;19.75;;;5.70;99.90;;;;;;2074118;28;20366;-72
2022/11/21 03:12:47;;;;;;;21.55;19.25;;;5.70;99.90;;;;;;2075794;28;20052;-72
2022/11/21 03:13:47;;;;;;;19.15;17.13;;;5.70;99.90;;;;;;2076740;28;20040;-72
2022/11/21 03:14:48;;;;;;;19.58;17.55;;;5.70;99.90;;;;;;2076674;28;20057;-72
2022/11/21 03:15:48;;;;;;;20.77;18.33;;;5.70;99.90;;;;;;2074981;28;20072;-72
2022/11/21 03:16:49;;;;;;;20.77;18.67;;;5.60;99.90;;;;;;2076443;28;20034;-72
2022/11/21 03:17:50;;;;;;;20.95;18.85;;;5.70;99.90;;;;;;2075032;28;20025;-72
2022/11/21 03:18:50;;;;;;;19.45;17.45;;;5.70;99.90;;;;;;2077304;28;20030;-72
2022/11/21 03:19:51;;;;;;;21.52;19.08;;;5.70;99.90;;;;;;2075841;28;20497;-72
2022/11/21 03:20:51;;;;;;;21.30;19.10;;;5.60;99.90;;;;;;2077284;28;20052;-72
2022/11/21 03:21:52;;;;;;;18.73;16.65;;;5.60;99.90;;;;;;2075330;28;20109;-72
2022/11/21 03:22:52;;;;;;;20.50;18.40;;;5.60;99.90;;;;;;2074192;28;20116;-72
2022/11/21 03:23:53;;;;;;;18.83;16.75;;;5.60;99.90;;;;;;2075859;28;20104;-72
2022/11/21 03:24:53;;;;;;;19.65;17.30;;;5.60;99.90;;;;;;2074068;28;20029;-72
2022/11/21 03:25:54;;;;;;;19.88;17.88;;;5.60;99.90;;;;;;2075136;28;20092;-72
2022/11/21 03:26:54;;;;;;;19.98;17.88;;;5.60;99.90;;;;;;2073980;28;20114;-72
2022/11/21 03:27:55;;;;;;;19.20;17.23;;;5.70;99.90;;;;;;2075505;28;20049;-72
2022/11/21 03:28:55;;;;;;;20.02;17.88;;;5.60;99.90;;;;;;2077166;28;20033;-72
2022/11/21 03:29:56;;;;;;;18.70;16.25;;;5.60;99.90;;;;;;2074800;28;20104;-72
2022/11/21 03:30:56;;;;;;;18.75;16.92;;;5.60;99.90;;;;;;2075552;28;20036;-72
2022/11/21 03:31:57;;;;;;;20.77;18.58;;;5.60;99.90;;;;;;2076514;28;20029;-72
2022/11/21 03:32:57;;;;;;;20.13;18.02;;;5.60;99.90;;;;;;2077715;28;20061;-72
2022/11/21 03:33:58;;;;;;;21.23;18.35;;;5.60;99.90;;;;;;2078583;28;20033;-72
2022/11/21 03:34:58;;;;;;;20.15;18.00;;;5.60;99.90;;;;;;2077570;28;20040;-72
2022/11/21 03:35:59;;;;;;;19.45;17.35;;;5.60;99.90;;;;;;2076560;28;20116;-72
2022/11/21 03:36:59;;;;;;;18.67;16.67;;;5.60;99.90;;;;;;2078604;28;20033;-72
2022/11/21 03:38:00;;;;;;;19.33;17.02;;;5.60;99.90;;;;;;2078304;28;20492;-72
2022/11/21 03:39:00;;;;;;;17.23;15.43;;;5.60;99.90;;;;;;2078836;28;20021;-72
2022/11/21 03:40:01;;;;;;;17.52;15.68;;;5.60;99.90;;;;;;2078628;28;20021;-72
2022/11/21 03:41:28;;;;;;;17.80;15.93;;;5.60;99.90;;;;;;2076440;28;20128;-72
2022/11/21 03:42:25;;;;;;;16.83;15.05;;;5.60;99.90;;;;;;2077701;28;20041;-72
2022/11/21 03:43:26;;;;;;;19.85;17.75;;;5.60;99.90;;;;;;2076935;28;20049;-72
2022/11/21 03:44:28;;;;;;;19.25;16.15;;;5.60;99.90;;;;;;2077677;28;20147;-72
2022/11/21 03:45:28;;;;;;;19.55;17.50;;;5.60;99.90;;;;;;2078463;28;20842;-72
2022/11/21 03:46:31;;;;;;;19.73;17.63;;;5.60;99.90;;;;;;2077040;28;20392;-72
2022/11/21 03:47:31;;;;;;;17.77;15.98;;;5.60;99.90;;;;;;2078549;28;20025;-72
2022/11/21 03:48:32;;;;;;;20.95;18.55;;;5.60;99.90;;;;;;2076457;28;20075;-72
2022/11/21 03:49:32;;;;;;;20.95;18.70;;;5.60;99.90;;;;;;2078965;28;20029;-72
2022/11/21 03:50:33;;;;;;;19.90;17.75;;;5.60;99.90;;;;;;2077176;28;20517;-72
2022/11/21 03:51:34;;;;;;;22.52;18.55;;;5.60;99.90;;;;;;2076585;28;20049;-72
2022/11/21 03:52:35;;;;;;;17.98;16.17;;;5.60;99.90;;;;;;2076869;28;20067;-72
2022/11/21 03:53:35;;;;;;;21.02;18.58;;;5.60;99.90;;;;;;2077263;28;20029;-72
2022/11/21 03:54:36;;;;;;;23.00;20.60;;;5.60;99.90;;;;;;2078240;28;20109;-73
2022/11/21 03:55:36;;;;;;;22.23;19.63;;;5.60;99.90;;;;;;2077126;28;20466;-72
2022/11/21 03:56:38;;;;;;;24.10;21.00;;;5.60;99.90;;;;;;2075613;28;20408;-72
2022/11/21 03:57:39;;;;;;;23.67;21.08;;;5.60;99.90;;;;;;2078818;28;20030;-72
2022/11/21 03:58:40;;;;;;;25.13;20.85;;;5.60;99.90;;;;;;2077574;28;20529;-72
2022/11/21 03:59:40;;;;;;;24.83;20.88;;;5.60;99.90;;;;;;2077621;28;20043;-72
2022/11/21 04:00:40;;;;;;;23.67;20.65;;;5.60;99.90;;;;;;2076226;28;20072;-72
2022/11/21 04:01:41;;;;;;;22.80;19.15;;;5.60;99.90;;;;;;2076167;28;20030;-72
2022/11/21 04:02:42;;;;;;;26.02;21.67;;;5.60;99.90;;;;;;2075968;28;20104;-72
2022/11/21 04:03:43;;;;;;;23.95;21.25;;;5.60;99.90;;;;;;2078438;28;20068;-72
2022/11/21 04:04:43;;;;;;;22.92;20.42;;;5.60;99.90;;;;;;2075562;28;20048;-72
2022/11/21 04:05:44;;;;;;;21.77;19.30;;;5.60;99.90;;;;;;2077364;28;20048;-72
2022/11/21 04:06:44;;;;;;;23.38;20.35;;;5.60;99.90;;;;;;2076297;28;20029;-72
2022/11/21 04:07:45;;;;;;;24.23;21.35;;;5.60;99.90;;;;;;2076644;28;20041;-72
2022/11/21 04:08:46;;;;;;;23.17;19.27;;;5.60;99.90;;;;;;2078767;28;20104;-72
2022/11/21 04:09:47;;;;;;;24.23;19.77;;;5.60;99.90;;;;;;2078846;28;20037;-72
2022/11/21 04:10:49;;;;;;;23.38;20.13;;;5.60;99.90;;;;;;2077997;28;20124;-72
2022/11/21 04:11:49;;;;;;;26.52;22.10;;;5.60;99.90;;;;;;2076731;28;20497;-72
2022/11/21 04:12:50;;;;;;;21.70;19.15;;;5.60;99.90;;;;;;2076404;28;22304;-72
2022/11/21 04:13:51;;;;;;;23.85;20.83;;;5.60;99.90;;;;;;2076371;28;20045;-72
2022/11/21 04:14:51;;;;;;;26.75;21.95;;;5.60;99.90;;;;;;2076610;28;20027;-72
2022/11/21 04:15:52;;;;;;;22.73;20.02;;;5.60;99.90;;;;;;2077102;28;20049;-72
2022/11/21 04:16:52;;;;;;;24.83;20.85;;;5.60;99.90;;;;;;2077171;28;20067;-72
2022/11/21 04:17:53;;;;;;;24.65;20.73;;;5.60;99.90;;;;;;2075743;28;20030;-72
2022/11/21 04:18:53;;;;;;;24.00;21.42;;;5.60;99.90;;;;;;2078323;28;20044;-72
2022/11/21 04:19:54;;;;;;;24.50;20.85;;;5.50;99.90;;;;;;2078409;28;20036;-72
2022/11/21 04:20:56;;;;;;;25.35;21.42;;;5.60;99.90;;;;;;2076260;28;20109;-72
2022/11/21 04:21:57;;;;;;;23.23;20.65;;;5.50;99.90;;;;;;2076315;28;20018;-72
2022/11/21 04:22:58;;;;;;;26.52;21.02;;;5.50;99.90;;;;;;2076416;28;20026;-72
2022/11/21 04:23:58;;;;;;;26.63;21.25;;;5.50;99.90;;;;;;2076573;28;20028;-72
2022/11/21 04:24:59;;;;;;;24.63;21.08;;;5.50;99.90;;;;;;2076807;28;20109;-72
2022/11/21 04:25:59;;;;;;;26.98;22.83;;;5.50;99.90;;;;;;2076577;28;20501;-72
2022/11/21 04:27:00;;;;;;;25.30;21.88;;;5.40;99.90;;;;;;2077491;28;20494;-72
2022/11/21 04:28:02;;;;;;;25.08;21.60;;;5.50;99.90;;;;;;2074580;28;20485;-72
2022/11/21 04:29:03;;;;;;;27.17;22.40;;;5.40;99.90;;;;;;2076760;28;20026;-72
2022/11/21 04:30:04;;;;;;;30.00;23.30;;;5.40;99.90;;;;;;2077222;28;20069;-72
2022/11/21 04:31:06;;;;;;;25.25;22.00;;;5.40;99.90;;;;;;2076235;28;20025;-72
2022/11/21 04:32:07;;;;;;;27.33;22.20;;;5.40;99.90;;;;;;2076668;28;20389;-72
2022/11/21 04:33:08;;;;;;;26.63;21.15;;;5.40;99.90;;;;;;2077573;28;20188;-72
2022/11/21 04:34:09;;;;;;;25.27;19.60;;;5.30;99.90;;;;;;2077656;28;20653;-72
2022/11/21 04:35:09;;;;;;;26.13;23.15;;;5.30;99.90;;;;;;2077621;28;20120;-72
2022/11/21 04:36:10;;;;;;;27.40;23.55;;;5.30;99.90;;;;;;2078914;28;20033;-72
2022/11/21 04:37:10;;;;;;;27.73;22.17;;;5.40;99.90;;;;;;2078553;28;20036;-72
2022/11/21 04:38:12;;;;;;;26.52;22.10;;;5.40;99.90;;;;;;2077457;28;20035;-72
2022/11/21 04:39:13;;;;;;;24.02;20.13;;;5.40;99.90;;;;;;2085920;28;20538;-72
2022/11/21 04:40:14;;;;;;;26.55;21.55;;;5.30;99.90;;;;;;2084699;28;20071;-72
2022/11/21 04:41:15;;;;;;;26.80;22.30;;;5.30;99.90;;;;;;2077714;28;20033;-72
2022/11/21 04:42:15;;;;;;;21.52;19.02;;;5.30;99.90;;;;;;2075794;28;20112;-72
2022/11/21 04:43:16;;;;;;;26.00;21.50;;;5.40;99.90;;;;;;2077048;28;20508;-72
2022/11/21 04:44:16;;;;;;;23.67;20.85;;;5.40;99.90;;;;;;2077463;28;20457;-72
2022/11/21 04:45:17;;;;;;;23.25;20.08;;;5.40;99.90;;;;;;2076548;28;20531;-72
2022/11/21 04:46:17;;;;;;;22.25;19.70;;;5.30;99.90;;;;;;2078443;28;20481;-72
2022/11/21 04:47:18;;;;;;;21.02;18.10;;;5.30;99.90;;;;;;2077521;28;20056;-72
2022/11/21 04:48:18;;;;;;;22.83;20.00;;;5.40;99.90;;;;;;2077858;28;20110;-72
2022/11/21 04:49:19;;;;;;;22.05;19.65;;;5.40;99.90;;;;;;2070487;28;20528;-72
2022/11/21 04:50:20;;;;;;;24.55;20.83;;;5.40;99.90;;;;;;2075394;28;20037;-72
2022/11/21 04:51:20;;;;;;;23.10;19.58;;;5.40;99.90;;;;;;2086099;28;20100;-72
2022/11/21 04:52:21;;;;;;;26.92;21.40;;;5.40;99.90;;;;;;2075164;28;20026;-72
2022/11/21 04:53:21;;;;;;;24.55;20.90;;;5.40;99.90;;;;;;2075284;28;20095;-72
2022/11/21 04:54:22;;;;;;;25.90;21.63;;;5.40;99.90;;;;;;2077028;28;20037;-72
2022/11/21 04:55:27;;;;;;;24.48;20.23;;;5.40;99.90;;;;;;2077229;28;20115;-72
2022/11/21 04:56:28;;;;;;;23.15;20.05;;;5.40;99.90;;;;;;2076709;28;20057;-72
2022/11/21 04:57:29;;;;;;;27.33;22.00;;;5.40;99.90;;;;;;2077912;28;20029;-72
2022/11/21 04:58:30;;;;;;;22.40;19.10;;;5.40;99.90;;;;;;2078790;28;20033;-72
2022/11/21 04:59:30;;;;;;;24.95;20.90;;;5.40;99.90;;;;;;2076835;28;20149;-72
2022/11/21 05:00:31;;;;;;;25.98;21.38;;;5.50;99.90;;;;;;2074900;28;20036;-72
2022/11/21 05:01:31;;;;;;;24.15;19.40;;;5.50;99.90;;;;;;2076324;28;20032;-72
2022/11/21 05:02:32;;;;;;;26.60;21.67;;;5.40;99.90;;;;;;2079187;28;20029;-72
2022/11/21 05:03:33;;;;;;;25.15;21.52;;;5.40;99.90;;;;;;2077689;28;20528;-72
2022/11/21 05:04:33;;;;;;;27.55;23.33;;;5.40;99.90;;;;;;2077546;28;20071;-73
2022/11/21 05:05:34;;;;;;;25.50;21.63;;;5.40;99.90;;;;;;2075289;28;20037;-72
2022/11/21 05:06:34;;;;;;;28.13;21.80;;;5.40;99.90;;;;;;2076876;28;20517;-72
2022/11/21 05:07:35;;;;;;;27.35;21.95;;;5.40;99.90;;;;;;2077121;28;21015;-72
2022/11/21 05:08:35;;;;;;;25.83;22.55;;;5.40;99.90;;;;;;2075615;28;20029;-72
2022/11/21 05:09:36;;;;;;;26.42;21.70;;;5.50;99.90;;;;;;2075856;28;20017;-72
2022/11/21 05:13:19;;;;;;;27.85;22.63;;;5.50;99.90;;;;;;2077359;28;20064;-72
2022/11/21 05:13:22;;;;;;;25.65;21.23;;;5.40;99.90;;;;;;2075573;28;19913;-72
2022/11/21 05:14:25;;;;;;;29.67;23.73;;;5.40;99.90;;;;;;2076766;28;20030;-72
2022/11/21 05:15:25;;;;;;;29.23;23.70;;;5.40;99.90;;;;;;2077236;28;20017;-72
2022/11/21 05:16:26;;;;;;;30.58;23.92;;;5.50;99.90;;;;;;2076292;28;20021;-72
2022/11/21 05:17:28;;;;;;;32.58;25.70;;;5.50;99.90;;;;;;2076513;28;20116;-72
2022/11/21 05:18:28;;;;;;;32.80;25.25;;;5.50;99.90;;;;;;2076345;28;20026;-72